Time,TemperatureF,DewpointF,PressureIn,WindDirection,WindDirectionDegrees,WindSpeedMPH,WindSpeedGustMPH,Humidity,HourlyPrecipIn,Conditions,Clouds,dailyrainin,SolarRadiationWatts/m^2,SoftwareType,DateUTC
2013-04-14 00:13:00,31.0,26.0,-100.00,West,263,7.0,10.0,80,0.00,,,0.30,1.000000,,2013-04-14 04:13:00,
2013-04-14 00:23:00,31.0,26.0,-100.00,West,263,7.0,10.0,80,0.00,,,0.30,1.000000,,2013-04-14 04:23:00,
2013-04-14 00:33:00,31.0,26.0,-100.00,West,263,7.0,10.0,80,0.00,,,0.30,1.000000,,2013-04-14 04:33:00,
2013-04-14 00:43:00,31.0,26.0,-100.00,West,263,7.0,10.0,80,0.00,,,0.30,1.000000,,2013-04-14 04:43:00,
2013-04-14 01:03:00,30.0,25.0,-100.00,WSW,253,5.0,11.0,81,0.00,,,0.30,1.000000,,2013-04-14 05:03:00,
2013-04-14 01:12:00,30.0,25.0,-100.00,WSW,253,5.0,11.0,81,0.00,,,0.30,1.000000,,2013-04-14 05:12:00,
2013-04-14 01:23:00,30.0,25.0,-100.00,WSW,253,5.0,11.0,81,0.00,,,0.30,1.000000,,2013-04-14 05:23:00,
2013-04-14 01:32:00,30.0,25.0,-100.00,WSW,253,5.0,11.0,81,0.00,,,0.30,1.000000,,2013-04-14 05:32:00,
2013-04-14 01:42:00,30.0,25.0,-100.00,WSW,253,5.0,11.0,81,0.00,,,0.30,1.000000,,2013-04-14 05:42:00,
2013-04-14 02:12:00,30.0,25.0,-100.00,WSW,245,5.0,8.0,82,0.00,,,0.29,0.000000,,2013-04-14 06:12:00,
2013-04-14 02:22:00,30.0,25.0,-100.00,WSW,245,5.0,8.0,82,0.00,,,0.29,0.000000,,2013-04-14 06:22:00,
2013-04-14 02:32:00,30.0,25.0,-100.00,WSW,245,5.0,8.0,82,0.00,,,0.29,0.000000,,2013-04-14 06:32:00,
2013-04-14 02:42:00,30.0,25.0,-100.00,WSW,245,5.0,8.0,82,0.00,,,0.29,0.000000,,2013-04-14 06:42:00,
2013-04-14 03:12:00,31.0,25.0,-100.00,West,272,7.0,10.0,78,0.00,,,0.29,1.000000,,2013-04-14 07:12:00,
2013-04-14 03:22:00,31.0,25.0,-100.00,West,272,7.0,10.0,78,0.00,,,0.29,1.000000,,2013-04-14 07:22:00,
2013-04-14 03:33:00,31.0,25.0,-100.00,West,272,7.0,10.0,78,0.00,,,0.29,1.000000,,2013-04-14 07:33:00,
2013-04-14 03:42:00,31.0,25.0,-100.00,West,272,7.0,10.0,78,0.00,,,0.29,1.000000,,2013-04-14 07:42:00,
2013-04-14 04:13:00,30.0,25.0,-100.00,West,266,5.0,10.0,82,0.00,,,0.29,1.000000,,2013-04-14 08:13:00,
2013-04-14 04:23:00,30.0,25.0,-100.00,West,266,5.0,10.0,82,0.00,,,0.29,1.000000,,2013-04-14 08:23:00,
2013-04-14 04:33:00,30.0,25.0,-100.00,West,266,5.0,10.0,82,0.00,,,0.29,1.000000,,2013-04-14 08:33:00,
2013-04-14 04:42:00,30.0,25.0,-100.00,West,266,5.0,10.0,82,0.00,,,0.29,1.000000,,2013-04-14 08:42:00,
2013-04-14 05:12:00,29.0,25.0,-100.00,West,262,5.0,7.0,86,0.00,,,0.29,1.000000,,2013-04-14 09:12:00,
2013-04-14 05:22:00,29.0,25.0,-100.00,West,262,5.0,7.0,86,0.00,,,0.29,1.000000,,2013-04-14 09:22:00,
2013-04-14 05:33:00,29.0,25.0,-100.00,West,262,5.0,7.0,86,0.00,,,0.29,1.000000,,2013-04-14 09:33:00,
2013-04-14 05:43:00,29.0,25.0,-100.00,West,262,5.0,7.0,86,0.00,,,0.29,1.000000,,2013-04-14 09:43:00,
2013-04-14 06:13:00,28.0,26.0,-100.00,West,275,4.0,6.0,92,0.00,,,0.28,1.000000,,2013-04-14 10:13:00,
2013-04-14 06:23:00,28.0,26.0,-100.00,West,275,4.0,6.0,92,0.00,,,0.28,1.000000,,2013-04-14 10:23:00,
2013-04-14 06:33:00,28.0,26.0,-100.00,West,275,4.0,6.0,92,0.00,,,0.28,1.000000,,2013-04-14 10:33:00,
2013-04-14 06:42:00,28.0,26.0,-100.00,West,275,4.0,6.0,92,0.00,,,0.28,1.000000,,2013-04-14 10:42:00,
2013-04-14 07:13:00,27.0,26.0,-100.00,West,271,4.0,6.0,95,0.00,,,0.28,1.000000,,2013-04-14 11:13:00,
2013-04-14 07:23:00,27.0,26.0,-100.00,West,271,4.0,6.0,95,0.00,,,0.28,1.000000,,2013-04-14 11:23:00,
2013-04-14 07:33:00,27.0,26.0,-100.00,West,271,4.0,6.0,95,0.00,,,0.28,1.000000,,2013-04-14 11:33:00,
2013-04-14 07:42:00,27.0,26.0,-100.00,West,271,4.0,6.0,95,0.00,,,0.28,1.000000,,2013-04-14 11:42:00,
2013-04-14 08:12:00,31.0,27.0,-100.00,South,180,1.0,5.0,84,0.00,,,0.28,36.000000,,2013-04-14 12:12:00,
2013-04-14 08:22:00,31.0,27.0,-100.00,South,180,1.0,5.0,84,0.00,,,0.28,36.000000,,2013-04-14 12:22:00,
2013-04-14 08:32:00,31.0,27.0,-100.00,South,180,1.0,5.0,84,0.00,,,0.28,36.000000,,2013-04-14 12:32:00,
2013-04-14 08:42:00,31.0,27.0,-100.00,South,180,1.0,5.0,84,0.00,,,0.28,36.000000,,2013-04-14 12:42:00,
2013-04-14 09:12:00,33.0,25.0,-100.00,West,268,5.0,8.0,73,0.00,,,0.27,195.000000,,2013-04-14 13:12:00,
2013-04-14 09:23:00,33.0,25.0,-100.00,West,268,5.0,8.0,73,0.00,,,0.27,195.000000,,2013-04-14 13:23:00,
2013-04-14 09:33:00,33.0,25.0,-100.00,West,268,5.0,8.0,73,0.00,,,0.27,195.000000,,2013-04-14 13:33:00,
2013-04-14 09:42:00,33.0,25.0,-100.00,West,268,5.0,8.0,73,0.00,,,0.27,195.000000,,2013-04-14 13:42:00,
2013-04-14 10:12:00,37.0,24.0,-100.00,NW,325,5.0,13.0,59,0.00,,,0.25,379.000000,,2013-04-14 14:12:00,
2013-04-14 10:22:00,37.0,24.0,-100.00,NW,325,5.0,13.0,59,0.00,,,0.25,379.000000,,2013-04-14 14:22:00,
2013-04-14 10:32:00,37.0,24.0,-100.00,NW,325,5.0,13.0,59,0.00,,,0.25,379.000000,,2013-04-14 14:32:00,
2013-04-14 10:42:00,37.0,24.0,-100.00,NW,325,5.0,13.0,59,0.00,,,0.25,379.000000,,2013-04-14 14:42:00,
2013-04-14 11:13:00,38.0,24.0,-100.00,WNW,289,6.0,11.0,56,0.00,,,0.22,562.000000,,2013-04-14 15:13:00,
2013-04-14 11:23:00,38.0,24.0,-100.00,WNW,289,6.0,11.0,56,0.00,,,0.22,562.000000,,2013-04-14 15:23:00,
2013-04-14 11:33:00,38.0,24.0,-100.00,WNW,289,6.0,11.0,56,0.00,,,0.22,562.000000,,2013-04-14 15:33:00,
2013-04-14 11:43:00,38.0,24.0,-100.00,WNW,289,6.0,11.0,56,0.00,,,0.22,562.000000,,2013-04-14 15:43:00,
2013-04-14 12:13:00,40.0,23.0,-100.00,NNW,331,5.0,11.0,50,0.00,,,0.18,693.000000,,2013-04-14 16:13:00,
2013-04-14 12:23:00,40.0,23.0,-100.00,NNW,331,5.0,11.0,50,0.00,,,0.18,693.000000,,2013-04-14 16:23:00,
2013-04-14 12:33:00,40.0,23.0,-100.00,NNW,331,5.0,11.0,50,0.00,,,0.18,693.000000,,2013-04-14 16:33:00,
2013-04-14 12:43:00,40.0,23.0,-100.00,NNW,331,5.0,11.0,50,0.00,,,0.18,693.000000,,2013-04-14 16:43:00,
2013-04-14 13:13:00,42.0,23.0,-100.00,SE,140,5.0,9.0,46,0.00,,,0.14,804.000000,,2013-04-14 17:13:00,
2013-04-14 13:22:00,42.0,23.0,-100.00,SE,140,5.0,9.0,46,0.00,,,0.14,804.000000,,2013-04-14 17:22:00,
2013-04-14 13:33:00,42.0,23.0,-100.00,SE,140,5.0,9.0,46,0.00,,,0.14,804.000000,,2013-04-14 17:33:00,
2013-04-14 13:42:00,42.0,23.0,-100.00,SE,140,5.0,9.0,46,0.00,,,0.14,804.000000,,2013-04-14 17:42:00,
2013-04-14 14:13:00,44.0,24.0,-100.00,SSE,164,8.0,16.0,45,0.00,,,0.06,760.000000,,2013-04-14 18:13:00,
2013-04-14 14:22:00,44.0,24.0,-100.00,SSE,164,8.0,16.0,45,0.00,,,0.06,760.000000,,2013-04-14 18:22:00,
2013-04-14 14:33:00,44.0,24.0,-100.00,SSE,164,8.0,16.0,45,0.00,,,0.06,760.000000,,2013-04-14 18:33:00,
2013-04-14 14:43:00,44.0,24.0,-100.00,SSE,164,8.0,16.0,45,0.00,,,0.06,760.000000,,2013-04-14 18:43:00,
2013-04-14 15:12:00,41.0,27.0,-100.00,ESE,123,8.0,17.0,57,0.00,,,0.01,624.000000,,2013-04-14 19:12:00,
2013-04-14 15:22:00,41.0,27.0,-100.00,ESE,123,8.0,17.0,57,0.00,,,0.01,624.000000,,2013-04-14 19:22:00,
2013-04-14 15:32:00,41.0,27.0,-100.00,ESE,123,8.0,17.0,57,0.00,,,0.01,624.000000,,2013-04-14 19:32:00,
2013-04-14 15:43:00,41.0,27.0,-100.00,ESE,123,8.0,17.0,57,0.00,,,0.01,624.000000,,2013-04-14 19:43:00,
2013-04-14 16:13:00,41.0,27.0,-100.00,ESE,114,9.0,16.0,57,0.00,,,0.01,507.000000,,2013-04-14 20:13:00,
2013-04-14 16:22:00,41.0,27.0,-100.00,ESE,114,9.0,16.0,57,0.00,,,0.01,507.000000,,2013-04-14 20:22:00,
2013-04-14 16:33:00,41.0,27.0,-100.00,ESE,114,9.0,16.0,57,0.00,,,0.01,507.000000,,2013-04-14 20:33:00,
2013-04-14 16:43:00,41.0,27.0,-100.00,ESE,114,9.0,16.0,57,0.00,,,0.01,507.000000,,2013-04-14 20:43:00,
2013-04-14 17:13:00,38.0,27.0,-100.00,ESE,107,7.0,15.0,63,0.00,,,0.01,369.000000,,2013-04-14 21:13:00,
2013-04-14 17:23:00,38.0,27.0,-100.00,ESE,107,7.0,15.0,63,0.00,,,0.01,369.000000,,2013-04-14 21:23:00,
2013-04-14 17:33:00,38.0,27.0,-100.00,ESE,107,7.0,15.0,63,0.00,,,0.01,369.000000,,2013-04-14 21:33:00,
2013-04-14 17:43:00,38.0,27.0,-100.00,ESE,107,7.0,15.0,63,0.00,,,0.01,369.000000,,2013-04-14 21:43:00,
2013-04-14 18:13:00,37.0,27.0,-100.00,SE,125,8.0,13.0,67,0.00,,,0.00,161.000000,,2013-04-14 22:13:00,
2013-04-14 18:23:00,37.0,27.0,-100.00,SE,125,8.0,13.0,67,0.00,,,0.00,161.000000,,2013-04-14 22:23:00,
2013-04-14 18:33:00,37.0,27.0,-100.00,SE,125,8.0,13.0,67,0.00,,,0.00,161.000000,,2013-04-14 22:33:00,
2013-04-14 18:44:00,37.0,27.0,-100.00,SE,125,8.0,13.0,67,0.00,,,0.00,161.000000,,2013-04-14 22:44:00,
2013-04-14 19:13:00,36.0,26.0,-100.00,ESE,122,8.0,14.0,68,0.00,,,0.00,98.000000,,2013-04-14 23:13:00,
2013-04-14 19:23:00,36.0,26.0,-100.00,ESE,122,8.0,14.0,68,0.00,,,0.00,98.000000,,2013-04-14 23:23:00,
2013-04-14 19:33:00,36.0,26.0,-100.00,ESE,122,8.0,14.0,68,0.00,,,0.00,98.000000,,2013-04-14 23:33:00,
2013-04-14 19:43:00,36.0,26.0,-100.00,ESE,122,8.0,14.0,68,0.00,,,0.00,98.000000,,2013-04-14 23:43:00,
2013-04-14 20:13:00,35.0,26.0,-100.00,ESE,118,6.0,13.0,68,0.00,,,0.00,77.000000,,2013-04-15 00:13:00,
2013-04-14 20:23:00,35.0,26.0,-100.00,ESE,118,6.0,13.0,68,0.00,,,0.00,77.000000,,2013-04-15 00:23:00,
2013-04-14 20:33:00,35.0,26.0,-100.00,ESE,118,6.0,13.0,68,0.00,,,0.00,77.000000,,2013-04-15 00:33:00,
2013-04-14 20:42:00,35.0,26.0,-100.00,ESE,118,6.0,13.0,68,0.00,,,0.00,77.000000,,2013-04-15 00:42:00,
2013-04-14 21:13:00,34.0,25.0,-100.00,SE,132,6.0,11.0,69,0.00,,,0.00,8.000000,,2013-04-15 01:13:00,
2013-04-14 21:23:00,34.0,25.0,-100.00,SE,132,6.0,11.0,69,0.00,,,0.00,8.000000,,2013-04-15 01:23:00,
2013-04-14 21:33:00,34.0,25.0,-100.00,SE,132,6.0,11.0,69,0.00,,,0.00,8.000000,,2013-04-15 01:33:00,
2013-04-14 21:42:00,34.0,25.0,-100.00,SE,132,6.0,11.0,69,0.00,,,0.00,8.000000,,2013-04-15 01:42:00,
2013-04-14 22:13:00,34.0,26.0,-100.00,ESE,121,5.0,11.0,71,0.00,,,0.00,1.000000,,2013-04-15 02:13:00,
2013-04-14 22:22:00,34.0,26.0,-100.00,ESE,121,5.0,11.0,71,0.00,,,0.00,1.000000,,2013-04-15 02:22:00,
2013-04-14 22:32:00,34.0,26.0,-100.00,ESE,121,5.0,11.0,71,0.00,,,0.00,1.000000,,2013-04-15 02:32:00,
2013-04-14 22:42:00,34.0,26.0,-100.00,ESE,121,5.0,11.0,71,0.00,,,0.00,1.000000,,2013-04-15 02:42:00,
2013-04-14 23:12:00,34.0,26.0,-100.00,ESE,122,4.0,10.0,71,0.00,,,0.00,1.000000,,2013-04-15 03:12:00,
2013-04-14 23:22:00,34.0,26.0,-100.00,ESE,122,4.0,10.0,71,0.00,,,0.00,1.000000,,2013-04-15 03:22:00,
2013-04-14 23:33:00,34.0,26.0,-100.00,ESE,122,4.0,10.0,71,0.00,,,0.00,1.000000,,2013-04-15 03:33:00,
2013-04-14 23:43:00,34.0,26.0,-100.00,ESE,122,4.0,10.0,71,0.00,,,0.00,1.000000,,2013-04-15 03:43:00,